Time;durP1;ratioP1;P1;durP2;ratioP2;P2;SDS_P1;SDS_P2;PMS_P1;PMS_P2;Temp;Humidity;BMP_temperature;BMP_pressure;BME280_temperature;BME280_humidity;BME280_pressure;Samples;Min_cycle;Max_cycle;Signal;HPM_P1;HPM_P2
2021/12/22 00:00:08;;;;;;;10.83;7.53;;;;;;;-3.11;nan;95880.28;5059644;28;20209;-73
2021/12/22 00:02:37;;;;;;;10.90;8.47;;;;;;;-3.08;nan;95877.88;5058728;28;20560;-70
2021/12/22 00:05:05;;;;;;;19.33;8.60;;;;;;;-2.88;nan;95876.00;5058997;28;20238;-70
2021/12/22 00:07:32;;;;;;;15.27;9.67;;;;;;;-3.03;nan;95870.56;5058969;28;20202;-70
2021/12/22 00:09:59;;;;;;;16.40;9.17;;;;;;;-2.98;nan;95872.41;5059374;28;20694;-71
2021/12/22 00:12:26;;;;;;;18.40;10.00;;;;;;;-3.33;nan;95873.78;5061452;28;20225;-74
2021/12/22 00:14:52;;;;;;;12.33;8.50;;;;;;;-3.71;nan;95871.69;5063631;28;20202;-74
2021/12/22 00:17:19;;;;;;;17.07;9.73;;;;;;;-3.65;nan;95872.72;5062957;28;20194;-71
2021/12/22 00:19:46;;;;;;;19.47;9.70;;;;;;;-3.37;nan;95878.59;5063059;28;20668;-71
2021/12/22 00:22:14;;;;;;;17.33;9.90;;;;;;;-3.23;nan;95867.47;5063443;28;20264;-74
2021/12/22 00:24:41;;;;;;;14.77;9.53;;;;;;;-3.17;nan;95867.63;5062855;28;20202;-72
2021/12/22 00:27:08;;;;;;;16.33;9.27;;;;;;;-3.35;nan;95865.41;5063502;28;20220;-73
2021/12/22 00:29:34;;;;;;;13.53;9.30;;;;;;;-3.21;nan;95865.84;5062822;28;20319;-73
2021/12/22 00:32:10;;;;;;;21.67;9.47;;;;;;;-3.19;nan;95869.22;5063013;28;20206;-73
2021/12/22 00:34:46;;;;;;;12.00;8.50;;;;;;;-3.02;nan;95875.59;5063277;28;20208;-72
2021/12/22 00:37:15;;;;;;;20.30;9.77;;;;;;;-2.89;nan;95880.13;5062920;28;20653;-73
2021/12/22 00:39:43;;;;;;;17.83;8.67;;;;;;;-2.87;nan;95877.69;5062286;28;20233;-69
2021/12/22 00:42:11;;;;;;;22.87;10.03;;;;;;;-2.77;nan;95883.00;5062319;28;20280;-73
2021/12/22 00:44:40;;;;;;;15.20;9.73;;;;;;;-2.79;nan;95889.59;5063198;28;21466;-70
2021/12/22 00:47:07;;;;;;;20.33;10.33;;;;;;;-2.67;nan;95885.75;5062556;28;20207;-73
2021/12/22 00:49:34;;;;;;;19.23;9.97;;;;;;;-2.80;nan;95882.91;5062491;28;20206;-73
2021/12/22 00:52:01;;;;;;;21.70;10.57;;;;;;;-2.79;nan;95884.59;5062432;28;20207;-72
2021/12/22 00:54:29;;;;;;;15.70;10.30;;;;;;;-2.88;nan;95871.88;5062546;28;20694;-69
2021/12/22 00:57:02;;;;;;;17.97;9.73;;;;;;;-2.97;nan;95890.66;5061904;28;20194;-75
2021/12/22 00:59:29;;;;;;;16.87;10.03;;;;;;;-3.01;nan;95893.84;5063029;28;20233;-74
2021/12/22 01:01:56;;;;;;;18.30;11.30;;;;;;;-2.86;nan;95895.16;5062769;28;20206;-71
2021/12/22 01:04:22;;;;;;;17.20;10.13;;;;;;;-2.75;nan;95900.47;5062507;28;20905;-73
2021/12/22 01:06:49;;;;;;;21.87;9.97;;;;;;;-2.66;nan;95887.44;5062485;28;21105;-73
2021/12/22 01:09:16;;;;;;;15.73;9.30;;;;;;;-2.63;nan;95888.38;5062522;28;20206;-71
2021/12/22 01:11:44;;;;;;;13.77;8.90;;;;;;;-2.63;nan;95882.56;5062633;28;20202;-71
2021/12/22 01:14:11;;;;;;;8.40;7.23;;;;;;;-2.58;nan;95891.03;5062223;28;20355;-71
2021/12/22 01:16:38;;;;;;;14.07;8.47;;;;;;;-2.92;nan;95885.00;5061752;28;20199;-71
2021/12/22 01:19:12;;;;;;;14.27;9.03;;;;;;;-2.99;nan;95888.13;5060827;28;20237;-71
2021/12/22 01:21:44;;;;;;;12.13;8.23;;;;;;;-3.00;nan;95885.59;5062209;28;20259;-71
2021/12/22 01:24:21;;;;;;;9.17;7.87;;;;;;;-3.14;nan;95883.50;5061285;28;20281;-70
2021/12/22 01:26:55;;;;;;;10.00;7.60;;;;;;;-3.31;nan;95887.09;5062221;28;20241;-71
2021/12/22 01:29:22;;;;;;;13.53;8.13;;;;;;;-3.38;nan;95876.91;5062152;28;20270;-72
2021/12/22 01:31:49;;;;;;;12.07;8.10;;;;;;;-3.27;nan;95873.13;5062470;28;20733;-70
2021/12/22 01:34:16;;;;;;;14.37;8.27;;;;;;;-3.19;nan;95869.22;5061682;28;20202;-70
2021/12/22 01:36:42;;;;;;;12.63;7.90;;;;;;;-3.02;nan;95873.09;5061514;28;20633;-71
2021/12/22 01:39:09;;;;;;;21.17;9.47;;;;;;;-2.97;nan;95851.69;5061630;28;20230;-71
2021/12/22 01:41:36;;;;;;;17.23;9.13;;;;;;;-2.65;nan;95875.06;5061893;28;20206;-73
2021/12/22 01:44:08;;;;;;;15.07;9.83;;;;;;;-2.76;nan;95862.31;5061783;28;20785;-70
2021/12/22 01:49:49;;;;;;;14.30;9.17;;;;;;;-3.21;nan;95855.91;5061657;28;20586;-71
2021/12/22 01:52:16;;;;;;;14.20;8.77;;;;;;;-3.36;nan;95866.22;5059961;28;20213;-71
2021/12/22 01:54:48;;;;;;;13.90;9.53;;;;;;;-3.01;nan;95864.00;5061640;28;20304;-74
2021/12/22 01:57:16;;;;;;;20.73;11.97;;;;;;;-3.01;nan;95864.00;5061353;28;20880;-72
2021/12/22 01:59:47;;;;;;;14.03;10.23;;;;;;;-2.96;nan;95862.47;5061223;28;20237;-73
2021/12/22 02:02:15;;;;;;;21.57;10.27;;;;;;;-3.12;nan;95852.06;5061585;28;20202;-71
2021/12/22 02:04:42;;;;;;;18.60;11.47;;;;;;;-3.46;nan;95860.09;5061899;28;20202;-71
2021/12/22 02:07:10;;;;;;;17.97;9.93;;;;;;;-3.35;nan;95859.59;5061500;28;20248;-73
2021/12/22 02:12:38;;;;;;;25.20;13.00;;;;;;;-3.09;71.75;95851.34;5099417;27;20298;-72
2021/12/22 02:15:07;;;;;;;20.97;11.90;;;;;;;-3.14;71.77;95850.34;5091956;28;20721;-73
2021/12/22 02:17:35;;;;;;;39.23;12.70;;;;;;;-3.30;72.49;95850.66;5092639;28;20206;-72
2021/12/22 02:20:04;;;;;;;21.33;12.00;;;;;;;-3.12;72.11;95841.28;5092430;28;20201;-73
2021/12/22 02:22:31;;;;;;;23.83;12.00;;;;;;;-3.19;71.94;95835.28;5091904;28;20748;-71
2021/12/22 02:25:02;;;;;;;21.50;12.23;;;;;;;-3.22;72.33;95844.31;5092463;28;20243;-72
2021/12/22 02:27:33;;;;;;;21.73;11.50;;;;;;;-3.19;72.38;95844.38;5092559;28;20193;-73
2021/12/22 02:30:03;;;;;;;29.83;13.47;;;;;;;-3.04;72.05;95839.03;5080611;28;20229;-70
2021/12/22 02:32:59;;;;;;;27.53;13.57;;;;;;;-3.16;71.94;95834.53;5071403;28;20229;-74
2021/12/22 02:35:39;;;;;;;19.97;13.33;;;;;;;-3.44;72.69;95832.81;5072005;28;20201;-72
2021/12/22 02:38:07;;;;;;;24.07;12.17;;;;;;;-3.39;72.74;95835.44;5072583;28;20209;-75
2021/12/22 02:40:34;;;;;;;23.07;12.03;;;;;;;-3.29;72.70;95829.97;5071887;28;20221;-75
2021/12/22 02:43:05;;;;;;;22.67;12.43;;;;;;;-3.12;72.06;95832.19;5070809;28;20206;-72
2021/12/22 02:45:33;;;;;;;28.77;14.07;;;;;;;-2.93;71.08;95827.75;5071738;28;20279;-72
2021/12/22 02:48:00;;;;;;;28.20;12.97;;;;;;;-2.95;71.33;95830.19;5071301;28;20206;-73
2021/12/22 02:50:28;;;;;;;20.93;12.03;;;;;;;-3.01;70.94;95830.03;5070459;28;20257;-74
2021/12/22 02:53:04;;;;;;;30.93;13.67;;;;;;;-3.01;71.46;95830.03;5071602;28;20202;-71
2021/12/22 02:55:42;;;;;;;22.93;13.43;;;;;;;-2.82;70.19;95832.28;5071038;28;20607;-74
2021/12/22 02:58:11;;;;;;;21.63;12.33;;;;;;;-2.77;70.40;95834.91;5071142;28;20593;-71
2021/12/22 03:00:49;;;;;;;26.03;13.50;;;;;;;-2.89;70.46;95837.84;5072249;28;20213;-71
2021/12/22 03:03:29;;;;;;;20.53;11.70;;;;;;;-3.01;70.97;95835.00;5071065;28;20194;-72
2021/12/22 03:05:59;;;;;;;33.23;12.37;;;;;;;-3.04;70.56;95829.09;5070395;28;20206;-73
2021/12/22 03:08:26;;;;;;;26.00;12.27;;;;;;;-3.21;70.94;95836.88;5071468;28;20680;-71
2021/12/22 03:10:53;;;;;;;19.87;13.00;;;;;;;-3.24;71.34;95840.91;5070955;28;20237;-74
2021/12/22 03:13:21;;;;;;;23.87;12.20;;;;;;;-3.16;71.15;95817.97;5070778;28;20199;-74
2021/12/22 03:15:48;;;;;;;22.27;12.43;;;;;;;-3.14;71.56;95827.97;5071653;28;20214;-71
2021/12/22 03:18:15;;;;;;;22.47;13.03;;;;;;;-3.16;71.48;95835.38;5070788;28;20207;-74
2021/12/22 03:20:44;;;;;;;21.60;12.57;;;;;;;-3.09;71.18;95833.94;5070483;28;20204;-70
2021/12/22 03:23:12;;;;;;;21.10;12.50;;;;;;;-3.07;70.90;95829.84;5061808;28;20289;-73
2021/12/22 03:25:39;;;;;;;23.93;12.50;;;;;;;-3.27;71.82;95830.88;5058170;28;20199;-72
2021/12/22 03:28:06;;;;;;;25.53;14.10;;;;;;;-3.54;73.05;95839.16;5057741;28;20685;-72
2021/12/22 03:30:34;;;;;;;26.83;13.40;;;;;;;-3.30;72.74;95838.25;5056979;28;20345;-72
2021/12/22 03:33:00;;;;;;;25.70;13.17;;;;;;;-3.28;72.03;95841.63;5056778;28;20199;-71
2021/12/22 03:35:27;;;;;;;20.80;13.03;;;;;;;-3.35;72.74;95842.22;5056672;28;20203;-71
2021/12/22 03:37:57;;;;;;;28.97;14.30;;;;;;;-3.37;72.54;95826.41;5057614;28;20261;-73
2021/12/22 03:40:28;;;;;;;21.93;12.13;;;;;;;-3.61;73.02;95829.78;5057060;28;20217;-71
2021/12/22 03:42:55;;;;;;;22.60;12.60;;;;;;;-3.74;73.50;95825.22;5057109;28;20271;-71
2021/12/22 03:45:21;;;;;;;24.37;12.20;;;;;;;-3.58;73.00;95834.88;5056925;28;20272;-72
2021/12/22 03:47:49;;;;;;;20.23;11.37;;;;;;;-3.83;74.55;95834.84;5056768;28;20248;-75
2021/12/22 03:50:17;;;;;;;21.20;11.13;;;;;;;-3.72;74.22;95838.53;5056602;28;20206;-72
2021/12/22 03:52:44;;;;;;;20.73;11.80;;;;;;;-3.48;73.18;95843.47;5056211;28;20239;-71
2021/12/22 03:55:11;;;;;;;20.00;11.73;;;;;;;-3.52;72.73;95840.03;5056956;28;20195;-73
2021/12/22 03:57:39;;;;;;;16.90;10.80;;;;;;;-3.80;73.29;95840.78;5056671;28;20260;-70
2021/12/22 04:00:10;;;;;;;21.13;10.63;;;;;;;-3.60;73.25;95845.53;5055765;28;20287;-71
2021/12/22 04:02:36;;;;;;;14.80;9.57;;;;;;;-3.40;72.13;95843.69;5056959;28;21218;-73
2021/12/22 04:05:04;;;;;;;19.60;10.30;;;;;;;-3.48;72.26;95836.88;5056547;28;20206;-73
2021/12/22 04:07:31;;;;;;;13.93;8.43;;;;;;;-3.68;72.15;95850.25;5055589;28;20206;-71
2021/12/22 04:09:58;;;;;;;15.43;7.00;;;;;;;-3.64;72.26;95847.06;5057000;28;20693;-72
2021/12/22 04:12:25;;;;;;;13.20;6.57;;;;;;;-3.63;71.07;95846.28;5055780;28;21293;-74
2021/12/22 04:14:53;;;;;;;11.13;6.37;;;;;;;-4.33;73.77;95833.09;5055835;28;20202;-73
2021/12/22 04:17:20;;;;;;;13.67;7.53;;;;;;;-4.22;74.35;95852.56;5056807;28;20259;-73
2021/12/22 04:19:47;;;;;;;16.23;8.00;;;;;;;-4.17;74.47;95852.69;5056697;28;20275;-74
2021/12/22 04:22:13;;;;;;;13.67;8.07;;;;;;;-4.27;74.58;95846.59;5055725;28;20669;-70
2021/12/22 04:24:40;;;;;;;20.70;7.80;;;;;;;-4.28;74.62;95862.25;5056180;28;20406;-73
2021/12/22 04:27:07;;;;;;;10.13;7.43;;;;;;;-4.14;74.26;95858.63;5057043;28;20203;-72
2021/12/22 04:29:33;;;;;;;11.27;7.93;;;;;;;-3.74;73.78;95861.63;5056126;28;20296;-73
2021/12/22 04:32:02;;;;;;;9.10;7.13;;;;;;;-4.04;73.49;95862.28;5056031;28;20230;-75
2021/12/22 04:34:28;;;;;;;12.83;8.53;;;;;;;-4.22;74.33;95861.66;5055264;28;20264;-69
2021/12/22 04:36:55;;;;;;;11.90;7.83;;;;;;;-4.47;74.96;95862.41;5055878;28;20199;-71
2021/12/22 04:39:22;;;;;;;12.03;7.80;;;;;;;-4.31;74.56;95842.31;5055950;28;20256;-73
2021/12/22 04:41:49;;;;;;;10.03;6.73;;;;;;;-4.07;74.00;95871.25;5056253;28;20292;-72
2021/12/22 04:44:15;;;;;;;8.17;6.67;;;;;;;-3.83;73.15;95862.16;5055659;28;20248;-71
2021/12/22 04:46:42;;;;;;;10.43;7.77;;;;;;;-3.81;73.32;95866.41;5055363;28;20736;-74
2021/12/22 04:49:11;;;;;;;11.77;7.33;;;;;;;-3.77;72.26;95872.31;5056297;28;20198;-71
2021/12/22 04:51:47;;;;;;;7.93;6.27;;;;;;;-3.92;72.43;95881.69;5055433;28;20320;-73
2021/12/22 04:54:30;;;;;;;9.80;6.23;;;;;;;-4.07;72.75;95886.16;5055320;28;20298;-71
2021/12/22 04:56:58;;;;;;;8.07;6.07;;;;;;;-3.93;73.13;95875.03;5055984;28;20202;-71
2021/12/22 04:59:25;;;;;;;10.80;6.53;;;;;;;-4.06;72.59;95875.44;5055783;28;20554;-73
2021/12/22 05:01:52;;;;;;;14.27;7.07;;;;;;;-4.42;73.38;95880.75;5055735;28;21152;-74
2021/12/22 05:04:20;;;;;;;16.60;6.77;;;;;;;-4.42;73.31;95883.25;5056004;28;20203;-74
2021/12/22 05:06:47;;;;;;;9.53;5.90;;;;;;;-4.64;73.86;95878.28;5055200;28;20235;-75
2021/12/22 05:09:14;;;;;;;18.43;7.63;;;;;;;-4.38;73.65;95874.28;5054645;28;20267;-74
2021/12/22 05:11:41;;;;;;;8.33;6.83;;;;;;;-4.14;72.85;95880.97;5055051;28;20245;-73
2021/12/22 05:14:08;;;;;;;9.17;6.70;;;;;;;-4.29;72.64;95892.84;5054934;28;20202;-71
2021/12/22 05:16:44;;;;;;;8.90;7.33;;;;;;;-4.29;72.72;95887.88;5055176;28;20199;-74
2021/12/22 05:19:14;;;;;;;9.27;6.47;;;;;;;-4.18;72.07;95891.56;5055352;28;20198;-70
2021/12/22 05:21:44;;;;;;;11.47;6.77;;;;;;;-4.15;71.78;95870.97;5054892;28;20226;-71
2021/12/22 05:24:11;;;;;;;8.43;6.27;;;;;;;-3.83;70.30;95900.25;5053937;28;20290;-71
2021/12/22 05:26:38;;;;;;;7.90;5.90;;;;;;;-3.94;70.60;95898.19;5055214;28;20264;-71
2021/12/22 05:29:05;;;;;;;11.13;6.13;;;;;;;-3.87;70.06;95892.66;5055461;28;20275;-70
2021/12/22 05:31:32;;;;;;;8.40;5.27;;;;;;;-3.91;70.50;95905.75;5054374;28;20225;-72
2021/12/22 05:33:59;;;;;;;6.93;6.07;;;;;;;-3.84;70.30;95895.25;5054176;28;20206;-70
2021/12/22 05:36:25;;;;;;;8.53;6.03;;;;;;;-3.84;69.62;95903.53;5054431;28;20199;-71
2021/12/22 05:38:55;;;;;;;9.20;6.37;;;;;;;-4.03;69.77;95891.28;5055564;28;20221;-73
2021/12/22 05:41:21;;;;;;;7.97;5.73;;;;;;;-3.95;70.10;95906.41;5054896;28;20714;-72
2021/12/22 05:43:48;;;;;;;6.80;5.77;;;;;;;-3.82;69.61;95898.63;5054973;28;20206;-70
2021/12/22 05:46:16;;;;;;;7.87;6.30;;;;;;;-3.64;69.51;95894.28;5054086;28;20254;-69
2021/12/22 05:48:44;;;;;;;12.73;6.53;;;;;;;-3.55;69.31;95894.59;5053743;28;20752;-74
2021/12/22 05:51:10;;;;;;;6.67;5.43;;;;;;;-4.02;70.15;95889.66;5055049;28;20210;-72
2021/12/22 05:53:38;;;;;;;12.87;6.87;;;;;;;-3.90;70.26;95904.94;5054294;28;20198;-71
2021/12/22 05:56:06;;;;;;;13.73;8.73;;;;;;;-3.76;70.06;95901.31;5054886;28;20211;-73
2021/12/22 05:58:33;;;;;;;13.30;8.23;;;;;;;-3.64;69.70;95908.34;5055082;28;20752;-74
2021/12/22 06:01:00;;;;;;;19.90;9.70;;;;;;;-3.81;69.96;95910.25;5054535;28;21108;-72
2021/12/22 06:03:26;;;;;;;20.63;10.60;;;;;;;-3.86;70.86;95912.56;5054331;28;20211;-71
2021/12/22 06:05:53;;;;;;;21.17;12.17;;;;;;;-4.01;70.67;95904.59;5055564;28;20339;-72
2021/12/22 06:08:20;;;;;;;17.17;10.17;;;;;;;-3.83;70.88;95906.88;5055104;28;20207;-75
2021/12/22 06:10:46;;;;;;;26.80;11.80;;;;;;;-3.65;70.82;95907.47;5054409;28;20304;-75
2021/12/22 06:13:15;;;;;;;19.73;11.03;;;;;;;-3.49;70.00;95914.69;5053812;28;20399;-72
2021/12/22 06:15:42;;;;;;;21.70;10.57;;;;;;;-3.32;69.18;95911.91;5054459;28;20271;-74
2021/12/22 06:18:09;;;;;;;25.33;13.67;;;;;;;-3.50;69.40;95912.16;5054604;28;20236;-74
2021/12/22 06:20:36;;;;;;;18.80;11.67;;;;;;;-3.52;69.41;95917.06;5054722;28;20195;-74
2021/12/22 06:23:04;;;;;;;24.03;12.80;;;;;;;-3.95;69.36;95918.84;5053532;28;20251;-76
2021/12/22 06:25:31;;;;;;;37.27;14.10;;;;;;;-3.90;70.38;95923.19;5054115;28;20666;-73
2021/12/22 06:27:57;;;;;;;66.33;22.70;;;;;;;-3.83;70.30;95936.66;5054760;28;20292;-72
2021/12/22 06:30:25;;;;;;;54.50;19.43;;;;;;;-3.82;70.79;95933.38;5054340;28;20261;-73
2021/12/22 06:32:52;;;;;;;48.67;18.30;;;;;;;-3.83;71.95;95931.69;5054351;28;20288;-74
2021/12/22 06:35:20;;;;;;;45.50;18.13;;;;;;;-4.11;72.64;95928.22;5053515;28;20233;-74
2021/12/22 06:37:47;;;;;;;52.33;15.40;;;;;;;-3.85;73.30;95933.28;5054542;28;20677;-76
2021/12/22 06:40:15;;;;;;;33.13;14.50;;;;;;;-3.67;72.79;95928.94;5054386;28;20203;-74
2021/12/22 06:42:43;;;;;;;36.33;15.03;;;;;;;-3.43;72.09;95937.22;5053926;28;20198;-72
2021/12/22 06:45:12;;;;;;;28.83;14.00;;;;;;;-3.28;71.08;95938.56;5054481;28;20202;-74
2021/12/22 06:47:41;;;;;;;31.73;14.83;;;;;;;-3.31;70.32;95933.47;5053916;28;20252;-73
2021/12/22 06:50:11;;;;;;;26.03;14.57;;;;;;;-3.08;70.34;95937.56;5055553;28;20202;-71
2021/12/22 06:52:37;;;;;;;50.23;23.73;;;;;;;-2.96;69.93;95947.88;5054527;28;20226;-72
2021/12/22 06:55:06;;;;;;;60.77;32.40;;;;;;;-2.84;69.94;95950.78;5053464;28;20198;-72
2021/12/22 06:57:33;;;;;;;85.57;37.60;;;;;;;-2.90;69.48;95947.25;5055116;28;21032;-71
2021/12/22 07:00:03;;;;;;;83.37;37.70;;;;;;;-2.88;68.63;95953.97;5057603;28;20627;-71
2021/12/22 07:02:35;;;;;;;84.40;37.27;;;;;;;-2.96;69.20;95942.06;5057735;28;20199;-74
2021/12/22 07:05:03;;;;;;;81.63;35.57;;;;;;;-2.17;66.11;95940.38;5057644;28;20741;-71
2021/12/22 07:07:30;;;;;;;84.60;38.77;;;;;;;-0.37;63.99;95940.84;5057493;28;20856;-73
2021/12/22 07:09:57;;;;;;;82.40;35.10;;;;;;;2.21;56.07;95933.69;5057567;28;20278;-71
2021/12/22 07:12:24;;;;;;;70.50;32.27;;;;;;;3.91;48.43;95929.41;5057515;28;20736;-72
2021/12/22 07:14:52;;;;;;;69.93;30.87;;;;;;;5.51;44.30;95911.34;5057371;28;20258;-74
2021/12/22 07:17:19;;;;;;;62.47;30.70;;;;;;;6.73;41.78;95917.78;5057644;28;20747;-70
2021/12/22 07:19:46;;;;;;;59.30;28.93;;;;;;;7.29;40.43;95916.59;5057367;28;20211;-70
2021/12/22 07:22:14;;;;;;;64.33;29.53;;;;;;;7.70;38.46;95911.19;5057897;28;20253;-71
2021/12/22 07:24:40;;;;;;;55.40;25.43;;;;;;;7.21;39.38;95915.78;5057517;28;20237;-73
2021/12/22 07:27:07;;;;;;;54.20;24.53;;;;;;;6.50;40.54;95919.56;5057517;28;20212;-73
2021/12/22 07:29:34;;;;;;;56.00;23.47;;;;;;;6.49;40.94;95916.19;5057348;28;20276;-72
2021/12/22 07:32:00;;;;;;;43.53;21.50;;;;;;;5.99;42.21;95916.34;5057426;28;20202;-73
2021/12/22 07:34:35;;;;;;;36.93;19.50;;;;;;;5.52;43.54;95916.41;5056662;28;20272;-73
2021/12/22 07:37:10;;;;;;;39.40;21.30;;;;;;;5.71;43.34;95914.69;5057024;28;20206;-73
2021/12/22 07:39:38;;;;;;;48.60;22.35;;;;;;;4.44;46.14;95913.72;5058087;28;20197;-72
2021/12/22 07:42:05;;;;;;;48.75;21.35;;;;;;;5.42;45.16;95913.06;5056656;28;21275;-74
2021/12/22 07:44:32;;;;;;;43.28;21.17;;;;;;;5.96;43.03;95910.47;5056766;28;20255;-74
2021/12/22 07:46:58;;;;;;;52.65;22.60;;;;;;;6.69;42.02;95911.03;5057148;28;20206;-74
2021/12/22 07:49:25;;;;;;;45.78;21.98;;;;;;;5.29;44.44;95916.41;5056306;28;20260;-74
2021/12/22 07:51:52;;;;;;;42.45;22.13;;;;;;;3.90;47.35;95912.63;5057532;28;20269;-74
2021/12/22 07:54:19;;;;;;;44.93;22.90;;;;;;;2.23;51.82;95916.13;5056477;28;20202;-72
2021/12/22 07:56:47;;;;;;;34.60;20.33;;;;;;;1.57;54.22;95919.44;5056491;28;20758;-74
2021/12/22 07:59:14;;;;;;;35.77;19.17;;;;;;;1.55;54.83;95926.06;5057148;28;20260;-71
2021/12/22 08:01:40;;;;;;;38.20;17.17;;;;;;;1.41;54.41;95920.88;5056842;28;20199;-72
2021/12/22 08:04:09;;;;;;;30.10;15.93;;;;;;;0.93;56.46;95930.94;5056229;28;20194;-72
2021/12/22 08:06:35;;;;;;;26.83;15.17;;;;;;;1.19;55.93;95929.72;5056651;28;20210;-72
2021/12/22 08:09:03;;;;;;;29.33;15.87;;;;;;;1.21;55.25;95933.09;5057121;28;20669;-72
2021/12/22 08:11:30;;;;;;;36.33;16.33;;;;;;;0.90;57.30;95941.72;5056391;28;20234;-72
2021/12/22 08:13:58;;;;;;;38.50;19.97;;;;;;;0.60;58.42;95926.16;5055889;28;20789;-74
2021/12/22 08:16:25;;;;;;;43.37;20.90;;;;;;;1.20;57.69;95945.56;5056587;28;20206;-72
2021/12/22 08:18:51;;;;;;;35.60;16.23;;;;;;;2.48;52.95;95942.34;5056699;28;20195;-72
2021/12/22 08:21:18;;;;;;;33.53;13.30;;;;;;;3.59;49.36;95935.88;5056262;28;20633;-71
2021/12/22 08:23:45;;;;;;;23.33;12.17;;;;;;;4.24;47.65;95933.75;5056319;28;20284;-74
2021/12/22 08:26:12;;;;;;;23.37;13.00;;;;;;;5.34;44.56;95932.38;5056601;28;20206;-74
2021/12/22 08:28:38;;;;;;;25.97;12.20;;;;;;;5.55;43.38;95935.72;5056069;28;20251;-73
2021/12/22 08:31:06;;;;;;;15.73;11.40;;;;;;;4.72;44.13;95938.13;5056252;28;20284;-74
2021/12/22 08:33:39;;;;;;;18.63;13.77;;;;;;;3.52;47.18;95934.13;5055888;28;20226;-74
2021/12/22 08:38:54;;;;;;;33.87;17.67;;;;;;;2.40;51.14;95944.78;5056020;28;20715;-74
2021/12/22 08:41:24;;;;;;;22.50;15.77;;;;;;;2.38;51.22;95949.78;5056826;28;20302;-71
2021/12/22 08:43:52;;;;;;;28.07;14.87;;;;;;;1.75;52.60;95953.91;5055068;28;20207;-74
2021/12/22 08:46:20;;;;;;;21.37;14.70;;;;;;;1.95;53.70;95945.03;5055314;28;20288;-71
2021/12/22 08:48:48;;;;;;;27.00;12.80;;;;;;;3.52;49.79;95955.09;5056077;28;20301;-71
2021/12/22 08:51:15;;;;;;;26.87;13.27;;;;;;;5.04;46.05;95944.94;5055487;28;20371;-70
2021/12/22 08:53:43;;;;;;;20.57;11.40;;;;;;;6.39;43.07;95946.56;5054948;28;20712;-72
2021/12/22 08:56:10;;;;;;;31.07;12.87;;;;;;;7.16;40.26;95937.75;5055834;28;21264;-71
2021/12/22 08:58:37;;;;;;;22.73;11.57;;;;;;;7.50;39.84;95943.41;5055930;28;20210;-74
2021/12/22 09:01:05;;;;;;;34.45;15.88;;;;;;;7.21;39.17;95935.19;5051833;28;21047;-73
2021/12/22 09:03:33;;;;;;;29.48;13.38;;;;;;;6.12;41.13;95944.94;5055051;28;20269;-75
2021/12/22 09:06:02;;;;;;;30.23;12.90;;;;;;;4.95;43.75;95934.84;5055092;28;20606;-75
2021/12/22 09:08:29;;;;;;;28.37;13.83;;;;;;;3.83;46.20;95948.63;5054887;28;20209;-74
2021/12/22 09:10:56;;;;;;;24.83;13.03;;;;;;;3.49;47.92;95950.03;5055877;28;20687;-73
2021/12/22 09:13:23;;;;;;;26.10;13.67;;;;;;;3.91;46.70;95944.50;5054924;28;20226;-73
2021/12/22 09:15:51;;;;;;;29.37;14.80;;;;;;;3.23;47.89;95926.38;5054529;28;20211;-75
2021/12/22 09:18:21;;;;;;;27.27;14.40;;;;;;;3.37;48.67;95940.75;5054209;28;20284;-75
2021/12/22 09:20:49;;;;;;;24.27;14.47;;;;;;;2.96;49.35;95939.53;5052961;28;20209;-72
2021/12/22 09:23:16;;;;;;;27.13;13.80;;;;;;;2.79;50.03;95938.50;5052004;28;20224;-70
2021/12/22 09:25:43;;;;;;;30.37;14.13;;;;;;;2.81;50.84;95934.34;5053210;28;20206;-73
2021/12/22 09:28:12;;;;;;;26.02;12.35;;;;;;;2.65;50.70;95931.69;5053913;28;20272;-72
2021/12/22 09:30:39;;;;;;;32.60;14.23;;;;;;;2.35;51.52;95934.69;5052433;28;20222;-71
2021/12/22 09:33:08;;;;;;;31.13;15.80;;;;;;;1.64;53.67;95939.59;5055659;28;20745;-73
2021/12/22 09:35:35;;;;;;;24.17;12.07;;;;;;;1.93;52.85;95941.66;5055058;28;20287;-74
2021/12/22 09:38:03;;;;;;;18.43;12.67;;;;;;;2.22;53.15;95927.00;5054171;28;20700;-75
2021/12/22 09:40:31;;;;;;;23.30;12.90;;;;;;;2.42;51.76;95937.28;5055139;28;21010;-74
2021/12/22 09:42:58;;;;;;;26.93;14.07;;;;;;;1.93;51.80;95929.97;5055142;28;20209;-74
2021/12/22 09:45:25;;;;;;;24.30;13.93;;;;;;;1.74;52.73;95912.97;5054828;28;20198;-72
2021/12/22 09:48:15;;;;;;;17.93;12.17;;;;;;;1.87;53.29;95916.53;5055516;28;20673;-73
2021/12/22 09:50:49;;;;;;;24.20;13.63;;;;;;;2.20;52.65;95916.97;5055038;28;20203;-74
2021/12/22 09:53:20;;;;;;;24.57;13.87;;;;;;;2.46;51.97;95913.91;5054266;28;20262;-72
2021/12/22 09:55:48;;;;;;;25.33;12.50;;;;;;;2.65;51.59;95910.78;5054202;28;20284;-75
2021/12/22 09:58:15;;;;;;;26.70;14.57;;;;;;;2.54;51.96;95913.16;5055059;28;20718;-73
2021/12/22 10:00:43;;;;;;;45.83;22.87;;;;;;;2.36;52.66;95902.94;5054359;28;20199;-73
2021/12/22 10:03:11;;;;;;;23.50;14.43;;;;;;;2.54;52.09;95905.63;5054300;28;20686;-74
2021/12/22 10:05:39;;;;;;;22.60;12.77;;;;;;;2.48;51.62;95903.03;5055107;28;20665;-72
2021/12/22 10:08:08;;;;;;;35.93;14.40;;;;;;;2.68;52.56;95898.25;5055117;28;20203;-74
2021/12/22 10:10:38;;;;;;;31.87;13.87;;;;;;;2.82;52.30;95885.84;5054345;28;20237;-76
2021/12/22 10:13:07;;;;;;;30.80;14.70;;;;;;;2.72;52.39;95898.28;5055070;28;20237;-75
2021/12/22 10:15:35;;;;;;;28.77;14.97;;;;;;;2.91;52.05;95891.78;5053550;28;20247;-75
2021/12/22 10:18:15;;;;;;;30.47;15.13;;;;;;;3.01;50.40;95895.19;5054831;28;20203;-74
2021/12/22 10:20:43;;;;;;;65.37;28.07;;;;;;;3.58;61.65;95889.78;5054199;28;20202;-73
2021/12/22 10:23:22;;;;;;;30.97;17.00;;;;;;;4.31;52.86;95891.84;5052752;28;20202;-76
2021/12/22 10:25:56;;;;;;;29.63;15.18;;;;;;;4.00;49.31;95884.16;5054206;28;20323;-74
2021/12/22 10:28:23;;;;;;;27.40;14.57;;;;;;;2.91;50.86;95898.47;5055349;28;20770;-72
2021/12/22 10:30:55;;;;;;;26.73;15.07;;;;;;;2.32;52.90;95886.16;5054264;28;20297;-77
2021/12/22 10:33:26;;;;;;;22.67;13.60;;;;;;;1.59;54.20;95905.25;5057551;28;20332;-72
2021/12/22 10:35:54;;;;;;;22.93;14.67;;;;;;;1.23;55.13;95901.41;5057058;28;20584;-73
2021/12/22 10:38:24;;;;;;;32.17;13.93;;;;;;;1.14;56.02;95900.41;5058337;28;20264;-76
2021/12/22 10:40:52;;;;;;;25.03;13.90;;;;;;;1.00;56.22;95902.66;5058217;28;20637;-77
2021/12/22 10:43:23;;;;;;;31.13;13.43;;;;;;;1.25;56.70;95889.72;5059193;28;20206;-72
2021/12/22 10:45:52;;;;;;;24.43;14.10;;;;;;;1.25;57.29;95884.72;5058568;28;20206;-78
2021/12/22 10:51:13;;;;;;;29.00;14.53;;;;;;;1.51;55.69;95875.09;5058452;28;20217;-74
2021/12/22 10:53:46;;;;;;;25.63;14.07;;;;;;;1.25;56.08;95882.22;5057629;28;20244;-73
2021/12/22 10:56:23;;;;;;;23.47;13.67;;;;;;;1.28;57.37;95874.75;5058142;28;20588;-72
2021/12/22 10:59:01;;;;;;;26.93;13.63;;;;;;;1.41;57.06;95855.75;5057913;28;20205;-70
2021/12/22 11:01:28;;;;;;;23.77;12.57;;;;;;;1.63;56.03;95866.91;5057641;28;20260;-74
2021/12/22 11:04:02;;;;;;;22.60;13.17;;;;;;;0.99;56.80;95865.97;5058093;28;20206;-75
2021/12/22 11:06:32;;;;;;;24.50;12.67;;;;;;;0.84;57.58;95868.22;5057532;28;20252;-76
2021/12/22 11:09:01;;;;;;;45.77;13.50;;;;;;;0.90;57.43;95860.81;5057362;28;20648;-72
2021/12/22 11:11:33;;;;;;;19.40;13.60;;;;;;;0.74;58.32;95843.88;5057609;28;20258;-73
2021/12/22 11:14:08;;;;;;;28.30;14.30;;;;;;;0.96;57.74;95855.91;5057575;28;20235;-71
2021/12/22 11:16:51;;;;;;;32.30;12.90;;;;;;;1.26;57.76;95858.88;5057853;28;20251;-75
2021/12/22 11:19:18;;;;;;;35.10;16.17;;;;;;;1.38;56.80;95857.38;5057604;28;20222;-73
2021/12/22 11:22:00;;;;;;;32.97;15.30;;;;;;;1.15;57.82;95852.88;5057632;28;20208;-72
2021/12/22 11:24:28;;;;;;;28.97;12.83;;;;;;;1.20;58.13;95850.44;5058145;28;20206;-71
2021/12/22 11:26:57;;;;;;;23.57;11.83;;;;;;;1.34;57.46;95848.97;5056914;28;20548;-72
2021/12/22 11:29:25;;;;;;;21.00;13.80;;;;;;;1.56;57.36;95842.59;5058031;28;20288;-76
2021/12/22 11:31:53;;;;;;;22.00;12.90;;;;;;;1.54;57.38;95845.06;5057990;28;20662;-76
2021/12/22 11:34:22;;;;;;;33.93;13.73;;;;;;;1.71;55.89;95830.28;5056633;28;21019;-76
2021/12/22 11:36:50;;;;;;;25.27;13.43;;;;;;;1.63;56.07;95845.22;5056590;28;20206;-73
2021/12/22 11:39:18;;;;;;;23.83;13.20;;;;;;;1.76;56.52;95837.84;5056564;28;20233;-74
2021/12/22 11:41:55;;;;;;;24.23;13.97;;;;;;;1.88;56.72;95841.34;5057098;28;20202;-78
2021/12/22 11:44:24;;;;;;;24.20;13.37;;;;;;;2.02;55.41;95847.34;5056755;28;20206;-75